Time,TemperatureF,DewpointF,PressureIn,WindDirection,WindDirectionDegrees,WindSpeedMPH,WindSpeedGustMPH,Humidity,HourlyPrecipIn,Conditions,Clouds,dailyrainin,SoftwareType,DateUTC
2013-07-24 07:48:00,81.7,63.7,29.71,WNW,284,7.9,7.9,54,0.00,,---,0.00,VWS V14.01,2013-07-24 11:48:00,
2013-07-24 07:49:00,81.9,63.8,29.71,WNW,284,0.0,7.9,54,0.00,,---,0.00,VWS V14.01,2013-07-24 11:49:00,
2013-07-24 07:50:00,81.9,63.8,29.71,WNW,284,0.0,0.0,54,0.00,,---,0.00,VWS V14.01,2013-07-24 11:50:00,
2013-07-24 07:51:00,82.0,64.0,29.71,West,264,0.0,5.7,54,0.00,,---,0.00,VWS V14.01,2013-07-24 11:51:00,
2013-07-24 07:56:00,82.6,62.6,29.71,NW,326,5.0,5.0,51,0.00,,---,0.00,VWS V14.01,2013-07-24 11:56:00,
2013-07-24 08:02:00,82.6,61.7,29.71,North,353,5.0,10.0,49,0.00,,---,0.00,VWS V14.01,2013-07-24 12:02:00,
2013-07-24 08:03:00,82.6,61.7,29.71,North,357,13.2,13.2,49,0.00,,---,0.00,VWS V14.01,2013-07-24 12:03:00,
2013-07-24 08:08:00,81.3,61.5,29.71,North,7,3.6,12.2,51,0.00,,---,0.00,VWS V14.01,2013-07-24 12:08:00,
2013-07-24 08:13:00,80.4,60.7,29.71,WNW,284,0.0,6.4,51,0.00,,---,0.00,VWS V14.01,2013-07-24 12:13:00,
2013-07-24 08:19:00,79.7,60.0,29.71,NW,307,5.0,10.0,51,0.00,,---,0.00,VWS V14.01,2013-07-24 12:19:00,
2013-07-24 08:25:00,79.3,59.7,29.71,NNW,336,10.0,10.0,51,0.00,,---,0.00,VWS V14.01,2013-07-24 12:25:00,
2013-07-24 08:30:00,79.2,59.5,29.71,WNW,303,6.4,6.4,51,0.00,,---,0.00,VWS V14.01,2013-07-24 12:30:00,
2013-07-24 08:36:00,79.2,59.5,29.71,NW,321,5.7,5.7,51,0.00,,---,0.00,VWS V14.01,2013-07-24 12:36:00,
2013-07-24 08:41:00,79.2,59.5,29.71,NNW,335,0.0,9.3,51,0.00,,---,0.00,VWS V14.01,2013-07-24 12:41:00,
2013-07-24 08:47:00,79.3,59.7,29.71,NNE,20,9.3,9.3,51,0.00,,---,0.00,VWS V14.01,2013-07-24 12:47:00,
2013-07-24 08:52:00,79.5,59.8,29.71,WNW,299,3.6,3.6,51,0.00,,---,0.00,VWS V14.01,2013-07-24 12:52:00,
2013-07-24 08:57:00,79.7,60.0,29.74,NNW,338,9.3,15.4,51,0.00,,---,0.00,VWS V14.01,2013-07-24 12:57:00,
2013-07-24 09:03:00,79.7,58.1,29.74,NW,316,4.3,4.3,48,0.00,,---,0.00,VWS V14.01,2013-07-24 13:03:00,
2013-07-24 09:09:00,79.7,58.1,29.74,North,353,0.0,0.0,48,0.00,,---,0.00,VWS V14.01,2013-07-24 13:09:00,
2013-07-24 09:15:00,79.7,58.1,29.74,NE,55,0.0,0.0,48,0.00,,---,0.00,VWS V14.01,2013-07-24 13:15:00,
2013-07-24 09:21:00,79.7,58.1,29.74,NE,55,0.0,0.0,48,0.00,,---,0.00,VWS V14.01,2013-07-24 13:21:00,
2013-07-24 09:26:00,79.7,58.1,29.74,WNW,282,0.0,0.0,48,0.00,,---,0.00,VWS V14.01,2013-07-24 13:26:00,
2013-07-24 09:31:00,79.7,58.1,29.74,North,353,10.0,10.0,48,0.00,,---,0.00,VWS V14.01,2013-07-24 13:31:00,
2013-07-24 09:36:00,79.7,58.1,29.74,North,353,10.0,10.0,48,0.00,,---,0.00,VWS V14.01,2013-07-24 13:36:00,
2013-07-24 09:42:00,79.7,58.1,29.74,North,353,10.0,10.0,48,0.00,,---,0.00,VWS V14.01,2013-07-24 13:42:00,
2013-07-24 09:47:00,79.7,58.1,29.74,North,353,10.0,10.0,48,0.00,,---,0.00,VWS V14.01,2013-07-24 13:47:00,
2013-07-24 09:53:00,79.7,58.1,29.74,North,353,10.0,10.0,48,0.00,,---,0.00,VWS V14.01,2013-07-24 13:53:00,
2013-07-24 09:58:00,79.7,58.1,29.74,North,353,10.0,10.0,48,0.00,,---,0.00,VWS V14.01,2013-07-24 13:58:00,
2013-07-24 10:04:00,79.7,58.1,29.74,North,353,10.0,10.0,48,0.00,,---,0.00,VWS V14.01,2013-07-24 14:04:00,
2013-07-24 10:09:00,79.7,58.1,29.74,North,353,10.0,10.0,48,0.00,,---,0.00,VWS V14.01,2013-07-24 14:09:00,
2013-07-24 10:14:00,79.7,58.1,29.74,North,353,10.0,10.0,48,0.00,,---,0.00,VWS V14.01,2013-07-24 14:14:00,
2013-07-24 10:20:00,79.7,58.1,29.74,North,353,10.0,10.0,48,0.00,,---,0.00,VWS V14.01,2013-07-24 14:20:00,
2013-07-24 10:25:00,79.7,58.1,29.74,North,353,10.0,10.0,48,0.00,,---,0.00,VWS V14.01,2013-07-24 14:25:00,
2013-07-24 10:31:00,79.7,58.1,29.74,North,353,10.0,10.0,48,0.00,,---,0.00,VWS V14.01,2013-07-24 14:31:00,
2013-07-24 10:36:00,79.7,58.1,29.74,North,353,10.0,10.0,48,0.00,,---,0.00,VWS V14.01,2013-07-24 14:36:00,
2013-07-24 10:42:00,79.7,58.1,29.77,North,353,10.0,10.0,48,0.00,,---,0.00,VWS V14.01,2013-07-24 14:42:00,
2013-07-24 10:47:00,79.7,58.1,29.77,North,353,10.0,10.0,48,0.00,,---,0.00,VWS V14.01,2013-07-24 14:47:00,
2013-07-24 10:53:00,79.7,58.1,29.77,North,353,10.0,10.0,48,0.00,,---,0.00,VWS V14.01,2013-07-24 14:53:00,
2013-07-24 10:59:00,79.7,58.1,29.77,North,353,10.0,10.0,48,0.00,,---,0.00,VWS V14.01,2013-07-24 14:59:00,
2013-07-24 11:04:00,84.2,55.4,29.77,WSW,239,4.3,4.3,37,0.00,,---,0.00,VWS V14.01,2013-07-24 15:04:00,
2013-07-24 11:10:00,84.2,55.4,29.77,WSW,239,4.3,4.3,37,0.00,,---,0.00,VWS V14.01,2013-07-24 15:10:00,
2013-07-24 11:16:00,84.2,55.4,29.77,WSW,239,4.3,4.3,37,0.00,,---,0.00,VWS V14.01,2013-07-24 15:16:00,
2013-07-24 11:21:00,83.8,56.3,29.77,WSW,239,4.3,4.3,39,0.00,,---,0.00,VWS V14.01,2013-07-24 15:21:00,
2013-07-24 11:27:00,83.8,56.3,29.77,WSW,239,4.3,4.3,39,0.00,,---,0.00,VWS V14.01,2013-07-24 15:27:00,
2013-07-24 11:32:00,83.8,56.3,29.77,WSW,239,4.3,4.3,39,0.00,,---,0.00,VWS V14.01,2013-07-24 15:32:00,
2013-07-24 11:38:00,84.0,56.5,29.77,WSW,239,4.3,4.3,39,0.00,,---,0.00,VWS V14.01,2013-07-24 15:38:00,
2013-07-24 11:44:00,84.0,55.3,29.77,WSW,239,4.3,4.3,37,0.00,,---,0.00,VWS V14.01,2013-07-24 15:44:00,
2013-07-24 11:49:00,84.0,55.3,29.77,WSW,239,4.3,4.3,37,0.00,,---,0.00,VWS V14.01,2013-07-24 15:49:00,
2013-07-24 11:55:00,83.7,56.2,29.77,WSW,239,4.3,4.3,39,0.00,,---,0.00,VWS V14.01,2013-07-24 15:55:00,
2013-07-24 12:00:00,83.1,54.5,29.77,WSW,239,4.3,4.3,37,0.00,,---,0.00,VWS V14.01,2013-07-24 16:00:00,
2013-07-24 12:05:00,83.1,54.5,29.77,WSW,239,4.3,4.3,37,0.00,,---,0.00,VWS V14.01,2013-07-24 16:05:00,
2013-07-24 12:10:00,82.9,54.3,29.77,WSW,239,4.3,4.3,37,0.00,,---,0.00,VWS V14.01,2013-07-24 16:10:00,
2013-07-24 12:15:00,82.9,54.3,29.77,WSW,239,4.3,4.3,37,0.00,,---,0.00,VWS V14.01,2013-07-24 16:15:00,
2013-07-24 12:20:00,82.6,54.0,29.77,WSW,239,4.3,4.3,37,0.00,,---,0.00,VWS V14.01,2013-07-24 16:20:00,
2013-07-24 12:25:00,82.4,53.8,29.80,WSW,239,4.3,4.3,37,0.00,,---,0.00,VWS V14.01,2013-07-24 16:25:00,
2013-07-24 12:31:00,82.2,54.9,29.80,WSW,239,4.3,4.3,39,0.00,,---,0.00,VWS V14.01,2013-07-24 16:31:00,
2013-07-24 12:36:00,82.0,54.7,29.80,WSW,239,4.3,4.3,39,0.00,,---,0.00,VWS V14.01,2013-07-24 16:36:00,
2013-07-24 12:41:00,82.0,54.7,29.80,WSW,239,4.3,4.3,39,0.00,,---,0.00,VWS V14.01,2013-07-24 16:41:00,
2013-07-24 12:46:00,81.5,54.2,29.80,WSW,239,4.3,4.3,39,0.00,,---,0.00,VWS V14.01,2013-07-24 16:46:00,
2013-07-24 12:52:00,81.1,53.9,29.80,WSW,239,4.3,4.3,39,0.00,,---,0.00,VWS V14.01,2013-07-24 16:52:00,
2013-07-24 13:00:00,81.9,56.9,29.80,WSW,239,4.3,4.3,42,0.00,,---,0.00,VWS V14.01,2013-07-24 17:00:00,
2013-07-24 13:05:00,81.9,56.9,29.80,WSW,239,4.3,4.3,42,0.00,,---,0.00,VWS V14.01,2013-07-24 17:05:00,
2013-07-24 13:10:00,82.6,55.2,29.80,WSW,239,4.3,4.3,39,0.00,,---,0.00,VWS V14.01,2013-07-24 17:10:00,
2013-07-24 13:17:00,82.6,55.2,29.80,WSW,239,4.3,4.3,39,0.00,,---,0.00,VWS V14.01,2013-07-24 17:17:00,
2013-07-24 13:23:00,82.6,54.0,29.80,WSW,239,4.3,4.3,37,0.00,,---,0.00,VWS V14.01,2013-07-24 17:23:00,
2013-07-24 13:29:00,82.8,54.2,29.80,WSW,239,4.3,4.3,37,0.00,,---,0.00,VWS V14.01,2013-07-24 17:29:00,
2013-07-24 13:34:00,82.8,54.2,29.80,WSW,239,4.3,4.3,37,0.00,,---,0.00,VWS V14.01,2013-07-24 17:34:00,
2013-07-24 13:40:00,83.3,54.6,29.80,WSW,239,4.3,4.3,37,0.00,,---,0.00,VWS V14.01,2013-07-24 17:40:00,
2013-07-24 13:45:00,83.7,55.0,29.80,WSW,239,4.3,4.3,37,0.00,,---,0.00,VWS V14.01,2013-07-24 17:45:00,
2013-07-24 13:51:00,84.0,55.3,29.80,WSW,239,4.3,4.3,37,0.00,,---,0.00,VWS V14.01,2013-07-24 17:51:00,
2013-07-24 13:57:00,84.2,54.2,29.80,WSW,239,4.3,4.3,36,0.00,,---,0.00,VWS V14.01,2013-07-24 17:57:00,
2013-07-24 14:02:00,83.8,53.8,29.80,WSW,239,4.3,4.3,36,0.00,,---,0.00,VWS V14.01,2013-07-24 18:02:00,
2013-07-24 14:08:00,83.8,53.8,29.80,WSW,239,4.3,4.3,36,0.00,,---,0.00,VWS V14.01,2013-07-24 18:08:00,
2013-07-24 14:13:00,84.2,54.2,29.80,WSW,239,4.3,4.3,36,0.00,,---,0.00,VWS V14.01,2013-07-24 18:13:00,
2013-07-24 14:19:00,84.4,53.0,29.80,WSW,239,4.3,4.3,34,0.00,,---,0.00,VWS V14.01,2013-07-24 18:19:00,
2013-07-24 14:24:00,84.4,53.0,29.80,WSW,239,4.3,4.3,34,0.00,,---,0.00,VWS V14.01,2013-07-24 18:24:00,
2013-07-24 14:30:00,85.1,54.9,29.80,WSW,239,4.3,4.3,36,0.00,,---,0.00,VWS V14.01,2013-07-24 18:30:00,
2013-07-24 14:35:00,85.5,53.9,29.80,WSW,239,4.3,4.3,34,0.00,,---,0.00,VWS V14.01,2013-07-24 18:35:00,
2013-07-24 14:40:00,85.5,53.9,29.80,WSW,239,4.3,4.3,34,0.00,,---,0.00,VWS V14.01,2013-07-24 18:40:00,
2013-07-24 14:46:00,85.3,53.8,29.80,WSW,239,4.3,4.3,34,0.00,,---,0.00,VWS V14.01,2013-07-24 18:46:00,
2013-07-24 14:51:00,85.1,53.6,29.80,WSW,239,4.3,4.3,34,0.00,,---,0.00,VWS V14.01,2013-07-24 18:51:00,
2013-07-24 14:57:00,85.1,53.6,29.80,WSW,239,4.3,4.3,34,0.00,,---,0.00,VWS V14.01,2013-07-24 18:57:00,
2013-07-24 15:02:00,85.1,53.6,29.80,West,259,3.6,3.6,34,0.00,,---,0.00,VWS V14.01,2013-07-24 19:02:00,
2013-07-24 15:08:00,85.1,53.6,29.80,WNW,289,9.3,9.3,34,0.00,,---,0.00,VWS V14.01,2013-07-24 19:08:00,
2013-07-24 15:13:00,85.1,53.6,29.80,WNW,289,9.3,9.3,34,0.00,,---,0.00,VWS V14.01,2013-07-24 19:13:00,
2013-07-24 15:19:00,85.1,53.6,29.80,SW,232,5.0,5.0,34,0.00,,---,0.00,VWS V14.01,2013-07-24 19:19:00,
2013-07-24 15:25:00,85.1,53.6,29.80,North,357,0.0,0.0,34,0.00,,---,0.00,VWS V14.01,2013-07-24 19:25:00,
2013-07-24 15:30:00,85.3,52.4,29.80,North,357,0.0,0.0,32,0.00,,---,0.00,VWS V14.01,2013-07-24 19:30:00,
2013-07-24 15:36:00,85.3,52.4,29.80,WNW,294,4.3,4.3,32,0.00,,---,0.00,VWS V14.01,2013-07-24 19:36:00,
2013-07-24 15:42:00,85.3,52.4,29.80,NNW,338,5.0,5.0,32,0.00,,---,0.00,VWS V14.01,2013-07-24 19:42:00,
2013-07-24 15:47:00,85.3,52.4,29.80,NNW,338,5.0,5.0,32,0.00,,---,0.00,VWS V14.01,2013-07-24 19:47:00,
2013-07-24 15:53:00,85.3,52.4,29.80,West,280,0.0,0.0,32,0.00,,---,0.00,VWS V14.01,2013-07-24 19:53:00,
2013-07-24 15:58:00,85.3,52.4,29.80,West,280,0.0,0.0,32,0.00,,---,0.00,VWS V14.01,2013-07-24 19:58:00,
2013-07-24 16:04:00,85.3,52.4,29.80,West,281,7.2,7.2,32,0.00,,---,0.00,VWS V14.01,2013-07-24 20:04:00,
2013-07-24 16:09:00,83.1,51.9,29.80,WNW,290,0.0,0.0,34,0.00,,---,0.00,VWS V14.01,2013-07-24 20:09:00,
2013-07-24 16:15:00,83.1,51.9,29.80,WNW,290,0.0,0.0,34,0.00,,---,0.00,VWS V14.01,2013-07-24 20:15:00,
2013-07-24 16:20:00,83.1,51.9,29.80,West,275,7.9,7.9,34,0.00,,---,0.00,VWS V14.01,2013-07-24 20:20:00,
2013-07-24 16:25:00,83.1,51.9,29.80,NNW,340,0.0,7.9,34,0.00,,---,0.00,VWS V14.01,2013-07-24 20:25:00,
2013-07-24 16:31:00,83.1,51.9,29.80,NNW,340,0.0,0.0,34,0.00,,---,0.00,VWS V14.01,2013-07-24 20:31:00,
2013-07-24 16:36:00,83.1,51.9,29.80,WNW,283,0.0,0.0,34,0.00,,---,0.00,VWS V14.01,2013-07-24 20:36:00,
2013-07-24 16:41:00,83.1,51.9,29.83,WNW,283,0.0,0.0,34,0.00,,---,0.00,VWS V14.01,2013-07-24 20:41:00,
2013-07-24 16:46:00,83.3,52.0,29.83,SW,232,5.0,5.0,34,0.00,,---,0.00,VWS V14.01,2013-07-24 20:46:00,
2013-07-24 16:52:00,83.3,52.0,29.83,SW,232,5.0,5.0,34,0.00,,---,0.00,VWS V14.01,2013-07-24 20:52:00,
2013-07-24 16:57:00,83.3,52.0,29.83,SW,232,5.0,5.0,34,0.00,,---,0.00,VWS V14.01,2013-07-24 20:57:00,
2013-07-24 17:03:00,83.3,52.0,29.80,SW,232,5.0,5.0,34,0.00,,---,0.00,VWS V14.01,2013-07-24 21:03:00,
2013-07-24 17:08:00,83.3,52.0,29.80,SW,232,5.0,5.0,34,0.00,,---,0.00,VWS V14.01,2013-07-24 21:08:00,
2013-07-24 17:13:00,83.3,52.0,29.80,West,265,5.0,5.0,34,0.00,,---,0.00,VWS V14.01,2013-07-24 21:13:00,
2013-07-24 17:19:00,82.6,51.4,29.80,NNW,337,0.0,0.0,34,0.00,,---,0.00,VWS V14.01,2013-07-24 21:19:00,
2013-07-24 17:24:00,82.6,51.4,29.80,NNW,337,0.0,0.0,34,0.00,,---,0.00,VWS V14.01,2013-07-24 21:24:00,
2013-07-24 17:30:00,82.6,51.4,29.80,NW,310,3.6,3.6,34,0.00,,---,0.00,VWS V14.01,2013-07-24 21:30:00,
2013-07-24 17:35:00,82.6,51.4,29.80,NNE,30,0.0,0.0,34,0.00,,---,0.00,VWS V14.01,2013-07-24 21:35:00,
2013-07-24 17:41:00,82.6,51.4,29.83,NNE,30,0.0,0.0,34,0.00,,---,0.00,VWS V14.01,2013-07-24 21:41:00,
2013-07-24 17:47:00,82.6,51.4,29.83,NNW,340,0.0,0.0,34,0.00,,---,0.00,VWS V14.01,2013-07-24 21:47:00,
2013-07-24 17:52:00,82.6,51.4,29.83,WNW,283,0.0,0.0,34,0.00,,---,0.00,VWS V14.01,2013-07-24 21:52:00,
2013-07-24 17:57:00,82.6,51.4,29.83,WNW,283,0.0,0.0,34,0.00,,---,0.00,VWS V14.01,2013-07-24 21:57:00,
2013-07-24 18:03:00,82.6,51.4,29.83,West,278,0.0,0.0,34,0.00,,---,0.00,VWS V14.01,2013-07-24 22:03:00,
2013-07-24 18:10:00,82.6,51.4,29.83,North,0,3.6,3.6,34,0.00,,---,0.00,VWS V14.01,2013-07-24 22:10:00,